Jeffersonville, Georgia
Current Conditions -  °F | °C
As of 11:58 PM on Saturday 25 Oct 2014 (Local Time) from KWRB Reporting Station
Clear Clear  
Wind Chill: 53°   Ceiling: Unl
Heat Index: 53°   Visibility: 10mi
Dew Point: 51°   Wind: 0mph
Humidity: 95%   Direction: NA
Pressure: 29.99"   Gusts: NA
Location:  32.69°N, 83.35°W
Report Text: KWRB 260358Z AUTO 00000KT 10SM CLR 12/11 A2999 RMK AO2 SLP157 T01150108
Loading
Personal Weather Stations






























Interactive Weather Map
Tropical Storm Tracking
New forecast layout! Learn more

10-Day Weather Forecast

Advertisements
Track Severe Weather on mobile